createdAt,value
2023-04-28T00:00:12.158Z,99665.46
2023-04-28T00:01:05.466Z,99666.37
2023-04-28T00:01:38.602Z,99664.64
2023-04-28T00:02:11.774Z,99668.31
2023-04-28T00:02:46.159Z,99665.46
2023-04-28T00:03:19.499Z,99663.90
2023-04-28T00:03:53.635Z,99667.59
2023-04-28T00:04:27.425Z,99664.63
2023-04-28T00:05:01.348Z,99667.70
2023-04-28T00:05:34.564Z,99669.98
2023-04-28T00:06:07.947Z,99667.77
2023-04-28T00:06:41.343Z,99668.98
2023-04-28T00:07:14.513Z,99666.26
2023-04-28T00:07:48.033Z,99667.05
2023-04-28T00:08:23.709Z,99667.27
2023-04-28T00:08:57.079Z,99669.46
2023-04-28T00:09:30.613Z,99668.11
2023-04-28T00:10:04.018Z,99666.95
2023-04-28T00:10:37.373Z,99671.39
2023-04-28T00:11:11.386Z,99670.11
2023-04-28T00:11:45.166Z,99671.40
2023-04-28T00:12:18.507Z,99671.36
2023-04-28T00:12:51.662Z,99671.95
2023-04-28T00:13:24.827Z,99672.14
2023-04-28T00:13:58.076Z,99670.74
2023-04-28T00:14:31.281Z,99671.61
2023-04-28T00:15:04.942Z,99673.82
2023-04-28T00:15:38.358Z,99672.59
2023-04-28T00:16:11.596Z,99673.40
2023-04-28T00:16:45.011Z,99672.23
2023-04-28T00:17:18.423Z,99673.96
2023-04-28T00:17:52.030Z,99672.55
2023-04-28T00:18:25.385Z,99672.52
2023-04-28T00:18:58.662Z,99671.64
2023-04-28T00:19:31.997Z,99672.88
2023-04-28T00:20:05.764Z,99673.70
2023-04-28T00:20:39.055Z,99668.74
2023-04-28T00:21:12.085Z,99673.20
2023-04-28T00:21:45.373Z,99669.19
2023-04-28T00:22:18.884Z,99668.84
2023-04-28T00:22:52.137Z,99672.49
2023-04-28T00:23:25.207Z,99668.75
2023-04-28T00:23:58.482Z,99669.69
2023-04-28T00:24:32.892Z,99665.55
2023-04-28T00:25:06.757Z,99664.79
2023-04-28T00:25:39.987Z,99666.23
2023-04-28T00:26:13.056Z,99666.77
2023-04-28T00:26:46.337Z,99666.94
2023-04-28T00:27:20.796Z,99668.14
2023-04-28T00:27:54.153Z,99668.69
2023-04-28T00:28:34.158Z,99666.19
2023-04-28T00:29:08.011Z,99665.86
2023-04-28T00:29:41.431Z,99667.48
2023-04-28T00:30:14.856Z,99666.42
2023-04-28T00:30:48.229Z,99664.56
2023-04-28T00:31:21.459Z,99667.17
2023-04-28T00:31:54.585Z,99665.73
2023-04-28T00:32:27.882Z,99666.98
2023-04-28T00:33:01.122Z,99668.90
2023-04-28T00:33:34.598Z,99668.55
2023-04-28T00:34:07.658Z,99666.48
2023-04-28T00:34:40.859Z,99664.60
2023-04-28T00:35:13.941Z,99668.09
2023-04-28T00:35:46.934Z,99665.00
2023-04-28T00:36:19.991Z,99663.59
2023-04-28T00:36:53.282Z,99668.26
2023-04-28T00:37:26.356Z,99666.84
2023-04-28T00:37:59.907Z,99667.84
2023-04-28T00:38:33.137Z,99667.17
2023-04-28T00:39:06.622Z,99669.45
2023-04-28T00:39:41.807Z,99668.11
2023-04-28T00:40:15.182Z,99670.55
2023-04-28T00:40:48.337Z,99670.73
2023-04-28T00:41:21.633Z,99672.80
2023-04-28T00:41:54.839Z,99674.23
2023-04-28T00:42:27.955Z,99672.35
2023-04-28T00:43:01.266Z,99671.73
2023-04-28T00:43:43.960Z,99675.26
2023-04-28T00:44:17.554Z,99675.54
2023-04-28T00:44:51.022Z,99677.14
2023-04-28T00:45:24.209Z,99674.25
2023-04-28T00:45:57.459Z,99674.92
2023-04-28T00:46:32.370Z,99673.23
2023-04-28T00:47:05.872Z,99675.18
2023-04-28T00:47:39.160Z,99677.07
2023-04-28T00:48:14.007Z,99677.31
2023-04-28T00:48:47.430Z,99676.34
2023-04-28T00:49:20.648Z,99675.38
2023-04-28T00:49:54.260Z,99676.69
2023-04-28T00:50:27.418Z,99678.48
2023-04-28T00:51:00.657Z,99678.16
2023-04-28T00:51:34.032Z,99676.46
2023-04-28T00:52:07.520Z,99681.96
2023-04-28T00:52:40.852Z,99677.45
2023-04-28T00:53:14.153Z,99677.29
2023-04-28T00:53:47.895Z,99678.73
2023-04-28T00:54:21.302Z,99675.91
2023-04-28T00:54:55.138Z,99677.52
2023-04-28T00:55:30.457Z,99679.77
2023-04-28T00:56:03.884Z,99677.71
2023-04-28T00:56:37.172Z,99679.05
2023-04-28T00:57:10.864Z,99676.96
2023-04-28T00:57:44.050Z,99679.04
2023-04-28T00:58:17.240Z,99680.23
2023-04-28T00:58:50.385Z,99678.52
2023-04-28T00:59:23.352Z,99680.64
2023-04-28T00:59:56.603Z,99680.70
2023-04-28T01:00:29.848Z,99682.13
2023-04-28T01:01:06.312Z,99680.59
2023-04-28T01:01:39.684Z,99683.87
2023-04-28T01:02:18.517Z,99681.98
2023-04-28T01:02:52.867Z,99679.58
2023-04-28T01:03:26.237Z,99681.54
2023-04-28T01:03:59.699Z,99682.05
2023-04-28T01:04:33.969Z,99679.66
2023-04-28T01:05:09.036Z,99682.77
2023-04-28T01:05:42.156Z,99680.31
2023-04-28T01:06:16.738Z,99681.27
2023-04-28T01:06:51.714Z,99682.08
2023-04-28T01:07:24.936Z,99680.56
2023-04-28T01:07:58.177Z,99680.61
2023-04-28T01:08:31.807Z,99680.65
2023-04-28T01:09:06.556Z,99681.25
2023-04-28T01:09:39.750Z,99680.13
2023-04-28T01:10:12.901Z,99677.64
2023-04-28T01:10:46.001Z,99676.53
2023-04-28T01:11:19.249Z,99677.20
2023-04-28T01:11:52.636Z,99677.42
2023-04-28T01:12:25.974Z,99681.60
2023-04-28T01:12:59.145Z,99676.46
2023-04-28T01:13:32.593Z,99678.37
2023-04-28T01:14:05.899Z,99678.09
2023-04-28T01:14:39.376Z,99676.73
2023-04-28T01:15:19.208Z,99675.36
2023-04-28T01:15:52.706Z,99672.58
2023-04-28T01:16:27.201Z,99673.05
2023-04-28T01:17:00.554Z,99669.96
2023-04-28T01:17:34.012Z,99671.45
2023-04-28T01:18:07.387Z,99672.69
2023-04-28T01:18:45.740Z,99672.11
2023-04-28T01:19:22.541Z,99672.28
2023-04-28T01:19:56.123Z,99673.29
2023-04-28T01:20:29.294Z,99672.92
2023-04-28T01:21:04.525Z,99669.57
2023-04-28T01:21:37.734Z,99672.54
2023-04-28T01:22:14.293Z,99671.20
2023-04-28T01:22:47.531Z,99668.11
2023-04-28T01:23:20.966Z,99669.51
2023-04-28T01:23:54.042Z,99668.65
2023-04-28T01:24:27.146Z,99669.23
2023-04-28T01:25:00.586Z,99671.27
2023-04-28T01:25:33.843Z,99667.11
2023-04-28T01:26:07.007Z,99664.92
2023-04-28T01:26:40.206Z,99668.89
2023-04-28T01:27:13.418Z,99668.77
2023-04-28T01:27:46.710Z,99669.16
2023-04-28T01:28:19.822Z,99668.95
2023-04-28T01:28:53.358Z,99667.48
2023-04-28T01:29:26.746Z,99664.71
2023-04-28T01:29:59.955Z,99666.73
2023-04-28T01:30:33.084Z,99665.23
2023-04-28T01:31:06.116Z,99665.27
2023-04-28T01:31:39.294Z,99663.59
2023-04-28T01:32:12.539Z,99665.16
2023-04-28T01:32:45.769Z,99667.92
2023-04-28T01:33:18.914Z,99663.49
2023-04-28T01:33:52.133Z,99664.16
2023-04-28T01:34:25.330Z,99665.86
2023-04-28T01:34:58.535Z,99662.20
2023-04-28T01:35:31.912Z,99665.73
2023-04-28T01:36:05.328Z,99663.86
2023-04-28T01:36:38.710Z,99664.27
2023-04-28T01:37:12.191Z,99666.02
2023-04-28T01:37:45.552Z,99664.86
2023-04-28T01:38:18.648Z,99663.81
2023-04-28T01:38:51.879Z,99668.29
2023-04-28T01:39:25.075Z,99667.23
2023-04-28T01:39:58.115Z,99665.73
2023-04-28T01:40:32.001Z,99668.91
2023-04-28T01:41:05.204Z,99666.77
2023-04-28T01:41:38.233Z,99667.70
2023-04-28T01:42:11.460Z,99665.86
2023-04-28T01:42:44.564Z,99663.83
2023-04-28T01:43:17.752Z,99665.41
2023-04-28T01:43:50.989Z,99666.67
2023-04-28T01:44:24.205Z,99663.49
2023-04-28T01:44:57.345Z,99666.70
2023-04-28T01:45:30.627Z,99666.23
2023-04-28T01:46:03.837Z,99665.98
2023-04-28T01:46:37.212Z,99667.69
2023-04-28T01:47:10.310Z,99666.67
2023-04-28T01:47:43.305Z,99668.27
2023-04-28T01:48:16.504Z,99665.48
2023-04-28T01:48:49.574Z,99668.08
2023-04-28T01:49:22.666Z,99664.10
2023-04-28T01:49:56.000Z,99667.36
2023-04-28T01:50:28.987Z,99667.69
2023-04-28T01:51:02.208Z,99667.31
2023-04-28T01:51:35.177Z,99668.33
2023-04-28T01:52:08.235Z,99666.05
2023-04-28T01:52:41.488Z,99668.09
2023-04-28T01:53:14.812Z,99669.79
2023-04-28T01:53:47.894Z,99669.45
2023-04-28T01:54:21.005Z,99666.19
2023-04-28T01:54:54.445Z,99669.46
2023-04-28T01:55:27.751Z,99667.73
2023-04-28T01:56:01.606Z,99665.83
2023-04-28T01:56:34.697Z,99668.26
2023-04-28T01:57:08.012Z,99667.13
2023-04-28T01:57:41.559Z,99668.88
2023-04-28T01:58:14.781Z,99668.70
2023-04-28T01:58:47.760Z,99667.70
2023-04-28T01:59:21.164Z,99669.41
2023-04-28T01:59:54.455Z,99669.43
2023-04-28T02:00:27.639Z,99667.91
2023-04-28T02:01:01.084Z,99664.40
2023-04-28T02:01:34.309Z,99667.73
2023-04-28T02:02:07.550Z,99664.70
2023-04-28T02:02:41.228Z,99668.34
2023-04-28T02:03:14.583Z,99666.36
2023-04-28T02:03:49.349Z,99662.97
2023-04-28T02:04:22.996Z,99666.41
2023-04-28T02:04:58.746Z,99667.56
2023-04-28T02:05:32.230Z,99667.48
2023-04-28T02:06:05.583Z,99667.55
2023-04-28T02:06:38.777Z,99671.10
2023-04-28T02:07:11.962Z,99668.87
2023-04-28T02:07:45.642Z,99671.10
2023-04-28T02:08:19.027Z,99672.98
2023-04-28T02:08:52.793Z,99667.59
2023-04-28T02:09:26.354Z,99672.44
2023-04-28T02:09:59.617Z,99670.69
2023-04-28T02:10:33.152Z,99672.61
2023-04-28T02:11:06.356Z,99672.44
2023-04-28T02:11:39.573Z,99674.71
2023-04-28T02:12:12.772Z,99674.54
2023-04-28T02:12:46.016Z,99673.15
2023-04-28T02:13:19.285Z,99674.84
2023-04-28T02:13:52.549Z,99673.41
2023-04-28T02:14:25.894Z,99675.80
2023-04-28T02:14:59.465Z,99677.38
2023-04-28T02:15:32.760Z,99675.96
2023-04-28T02:16:06.262Z,99675.64
2023-04-28T02:16:39.489Z,99676.64
2023-04-28T02:17:12.728Z,99678.53
2023-04-28T02:17:46.162Z,99678.63
2023-04-28T02:18:19.424Z,99679.84
2023-04-28T02:18:52.633Z,99679.71
2023-04-28T02:19:25.912Z,99681.64
2023-04-28T02:19:59.279Z,99679.90
2023-04-28T02:20:33.417Z,99680.20
2023-04-28T02:21:12.939Z,99680.13
2023-04-28T02:21:46.169Z,99680.94
2023-04-28T02:22:19.369Z,99682.16
2023-04-28T02:22:52.479Z,99678.98
2023-04-28T02:23:25.513Z,99684.70
2023-04-28T02:23:58.980Z,99681.29
2023-04-28T02:24:34.965Z,99682.07
2023-04-28T02:25:08.575Z,99683.67
2023-04-28T02:25:41.829Z,99683.31
2023-04-28T02:26:15.382Z,99682.63
2023-04-28T02:26:48.503Z,99681.26
2023-04-28T02:27:21.848Z,99686.05
2023-04-28T02:27:54.993Z,99685.02
2023-04-28T02:28:28.531Z,99681.92
2023-04-28T02:29:04.420Z,99683.34
2023-04-28T02:29:37.669Z,99682.38
2023-04-28T02:30:10.986Z,99683.16
2023-04-28T02:30:44.400Z,99681.83
2023-04-28T02:31:17.650Z,99682.02
2023-04-28T02:31:50.875Z,99685.81
2023-04-28T02:32:24.241Z,99681.40
2023-04-28T02:32:57.510Z,99682.27
2023-04-28T02:33:30.722Z,99682.99
2023-04-28T02:34:03.760Z,99680.28
2023-04-28T02:34:36.963Z,99679.66
2023-04-28T02:35:10.272Z,99684.19
2023-04-28T02:35:43.556Z,99676.80
2023-04-28T02:36:17.116Z,99684.50
2023-04-28T02:36:51.677Z,99683.92
2023-04-28T02:37:24.764Z,99684.48
2023-04-28T02:37:57.945Z,99681.73
2023-04-28T02:38:31.451Z,99684.14
2023-04-28T02:39:04.483Z,99682.29
2023-04-28T02:39:37.925Z,99684.87
2023-04-28T02:40:11.393Z,99684.39
2023-04-28T02:40:44.598Z,99683.75
2023-04-28T02:41:17.729Z,99686.18
2023-04-28T02:41:50.884Z,99684.34
2023-04-28T02:42:23.992Z,99687.50
2023-04-28T02:42:57.154Z,99685.59
2023-04-28T02:43:30.362Z,99685.45
2023-04-28T02:44:03.629Z,99686.66
2023-04-28T02:44:36.918Z,99685.65
2023-04-28T02:45:10.387Z,99684.35
2023-04-28T02:45:43.526Z,99683.84
2023-04-28T02:46:16.789Z,99687.87
2023-04-28T02:46:50.433Z,99685.98
2023-04-28T02:47:23.498Z,99687.13
2023-04-28T02:47:56.532Z,99686.02
2023-04-28T02:48:29.843Z,99686.45
2023-04-28T02:49:04.527Z,99686.75
2023-04-28T02:49:37.847Z,99686.86
2023-04-28T02:50:11.506Z,99691.68
2023-04-28T02:50:46.347Z,99689.77
2023-04-28T02:51:19.613Z,99692.10
2023-04-28T02:51:52.804Z,99693.55
2023-04-28T02:52:25.993Z,99695.53
2023-04-28T02:52:59.210Z,99697.39
2023-04-28T02:53:32.186Z,99699.38
2023-04-28T02:54:05.334Z,99697.24
2023-04-28T02:54:38.546Z,99698.08
2023-04-28T02:55:11.913Z,99698.67
2023-04-28T02:55:45.276Z,99698.19
2023-04-28T02:56:18.349Z,99698.38
2023-04-28T02:56:51.507Z,99700.70
2023-04-28T02:57:24.777Z,99697.98
2023-04-28T02:57:57.950Z,99700.64
2023-04-28T02:58:31.267Z,99698.71
2023-04-28T02:59:04.607Z,99696.86
2023-04-28T02:59:37.611Z,99701.36
2023-04-28T03:00:10.960Z,99699.56
2023-04-28T03:00:44.312Z,99700.12
2023-04-28T03:01:17.391Z,99699.25
2023-04-28T03:01:52.067Z,99699.81
2023-04-28T03:02:25.372Z,99700.35
2023-04-28T03:02:58.826Z,99700.56
2023-04-28T03:03:32.748Z,99702.77
2023-04-28T03:04:06.663Z,99701.72
2023-04-28T03:04:40.072Z,99700.00
2023-04-28T03:05:13.066Z,99703.25
2023-04-28T03:05:46.398Z,99706.36
2023-04-28T03:06:19.654Z,99707.69
2023-04-28T03:06:53.082Z,99703.98
2023-04-28T03:07:26.356Z,99703.83
2023-04-28T03:07:59.952Z,99705.74
2023-04-28T03:08:33.299Z,99706.77
2023-04-28T03:09:06.977Z,99707.52
2023-04-28T03:09:42.148Z,99708.59
2023-04-28T03:10:15.344Z,99706.73
2023-04-28T03:10:48.563Z,99709.35
2023-04-28T03:11:21.852Z,99707.85
2023-04-28T03:11:55.170Z,99707.14
2023-04-28T03:12:28.446Z,99707.66
2023-04-28T03:13:01.559Z,99709.41
2023-04-28T03:13:36.160Z,99707.34
2023-04-28T03:14:09.351Z,99707.58
2023-04-28T03:14:42.566Z,99709.31
2023-04-28T03:15:15.692Z,99710.82
2023-04-28T03:15:48.985Z,99710.70
2023-04-28T03:16:22.087Z,99709.86
2023-04-28T03:16:55.929Z,99714.29
2023-04-28T03:17:29.085Z,99712.11
2023-04-28T03:18:02.317Z,99713.34
2023-04-28T03:18:35.747Z,99716.32
2023-04-28T03:19:08.852Z,99710.34
2023-04-28T03:19:42.176Z,99714.55
2023-04-28T03:20:15.309Z,99711.09
2023-04-28T03:20:48.563Z,99714.21
2023-04-28T03:21:21.878Z,99712.86
2023-04-28T03:21:55.061Z,99714.52
2023-04-28T03:22:28.327Z,99714.40
2023-04-28T03:23:02.830Z,99712.91
2023-04-28T03:23:35.920Z,99715.19
2023-04-28T03:24:09.108Z,99717.79
2023-04-28T03:24:42.420Z,99716.20
2023-04-28T03:25:15.634Z,99717.41
2023-04-28T03:25:48.892Z,99713.56
2023-04-28T03:26:22.511Z,99719.41
2023-04-28T03:26:55.910Z,99716.78
2023-04-28T03:27:29.084Z,99716.43
2023-04-28T03:28:02.646Z,99717.22
2023-04-28T03:28:35.867Z,99716.66
2023-04-28T03:29:09.178Z,99717.27
2023-04-28T03:29:42.351Z,99715.17
2023-04-28T03:30:15.786Z,99720.07
2023-04-28T03:30:48.810Z,99718.10
2023-04-28T03:31:21.912Z,99718.66
2023-04-28T03:31:55.117Z,99723.70
2023-04-28T03:32:28.374Z,99722.48
2023-04-28T03:33:01.473Z,99716.09
2023-04-28T03:33:34.791Z,99720.92
2023-04-28T03:34:08.005Z,99722.67
2023-04-28T03:34:41.244Z,99721.07
2023-04-28T03:35:14.481Z,99721.54
2023-04-28T03:35:47.597Z,99723.08
2023-04-28T03:36:20.742Z,99725.08
2023-04-28T03:36:53.823Z,99721.27
2023-04-28T03:37:27.463Z,99723.44
2023-04-28T03:38:00.712Z,99723.77
2023-04-28T03:38:33.876Z,99724.23
2023-04-28T03:39:07.286Z,99725.01
2023-04-28T03:39:40.675Z,99729.56
2023-04-28T03:40:13.983Z,99725.34
2023-04-28T03:40:47.141Z,99728.97
2023-04-28T03:41:20.421Z,99725.81
2023-04-28T03:41:53.976Z,99724.11
2023-04-28T03:42:27.518Z,99727.17
2023-04-28T03:43:03.934Z,99725.73
2023-04-28T03:43:37.865Z,99726.81
2023-04-28T03:44:11.066Z,99726.80
2023-04-28T03:44:44.386Z,99724.91
2023-04-28T03:45:17.519Z,99726.69
2023-04-28T03:45:50.728Z,99725.89
2023-04-28T03:46:24.247Z,99727.44
2023-04-28T03:46:57.580Z,99729.52
2023-04-28T03:47:30.728Z,99727.79
2023-04-28T03:48:03.957Z,99727.94
2023-04-28T03:48:37.200Z,99726.63
2023-04-28T03:49:10.812Z,99726.17
2023-04-28T03:49:44.182Z,99728.60
2023-04-28T03:50:17.195Z,99726.63
2023-04-28T03:50:50.352Z,99731.96
2023-04-28T03:51:23.604Z,99731.84
2023-04-28T03:51:56.936Z,99733.29
2023-04-28T03:52:30.216Z,99729.13
2023-04-28T03:53:03.459Z,99728.52
2023-04-28T03:53:36.471Z,99730.65
2023-04-28T03:54:09.489Z,99728.67
2023-04-28T03:54:42.830Z,99729.43
2023-04-28T03:55:16.170Z,99729.88
2023-04-28T03:55:49.351Z,99728.64
2023-04-28T03:56:22.661Z,99732.90
2023-04-28T03:56:55.858Z,99730.70
2023-04-28T03:57:29.006Z,99730.10
2023-04-28T03:58:02.188Z,99731.02
2023-04-28T03:58:35.631Z,99734.61
2023-04-28T03:59:11.824Z,99731.95
2023-04-28T03:59:45.079Z,99733.96
2023-04-28T04:00:18.429Z,99733.88
2023-04-28T04:00:51.647Z,99729.86
2023-04-28T04:01:26.230Z,99733.42
2023-04-28T04:01:59.533Z,99735.14
2023-04-28T04:02:32.902Z,99734.02
2023-04-28T04:03:06.282Z,99733.44
2023-04-28T04:03:40.157Z,99731.60
2023-04-28T04:04:13.966Z,99734.63
2023-04-28T04:04:47.596Z,99735.04
2023-04-28T04:05:21.004Z,99735.70
2023-04-28T04:05:55.369Z,99732.66
2023-04-28T04:06:28.599Z,99735.46
2023-04-28T04:07:02.590Z,99736.69
2023-04-28T04:07:35.955Z,99739.20
2023-04-28T04:08:09.572Z,99739.61
2023-04-28T04:08:42.888Z,99736.69
2023-04-28T04:09:16.227Z,99739.10
2023-04-28T04:09:49.471Z,99741.66
2023-04-28T04:10:22.615Z,99742.12
2023-04-28T04:10:56.156Z,99743.61
2023-04-28T04:11:29.341Z,99743.84
2023-04-28T04:12:02.564Z,99742.23
2023-04-28T04:12:35.763Z,99743.14
2023-04-28T04:13:08.863Z,99744.48
2023-04-28T04:13:41.899Z,99747.00
2023-04-28T04:14:15.292Z,99745.47
2023-04-28T04:14:48.961Z,99742.66
2023-04-28T04:15:22.194Z,99743.73
2023-04-28T04:15:55.458Z,99742.21
2023-04-28T04:16:29.596Z,99742.90
2023-04-28T04:17:02.709Z,99744.18
2023-04-28T04:17:35.744Z,99743.10
2023-04-28T04:18:09.006Z,99747.96
2023-04-28T04:18:42.277Z,99745.47
2023-04-28T04:19:15.501Z,99746.14
2023-04-28T04:19:48.676Z,99750.08
2023-04-28T04:20:21.896Z,99748.22
2023-04-28T04:20:56.212Z,99747.68
2023-04-28T04:21:29.641Z,99746.46
2023-04-28T04:22:02.950Z,99748.01
2023-04-28T04:22:36.672Z,99745.23
2023-04-28T04:23:09.819Z,99747.83
2023-04-28T04:23:42.930Z,99747.11
2023-04-28T04:24:16.504Z,99747.92
2023-04-28T04:24:49.902Z,99747.42
2023-04-28T04:25:23.548Z,99750.64
2023-04-28T04:25:56.691Z,99746.84
2023-04-28T04:26:29.931Z,99751.14
2023-04-28T04:27:03.165Z,99750.39
2023-04-28T04:27:36.429Z,99751.18
2023-04-28T04:28:09.679Z,99751.63
2023-04-28T04:28:42.932Z,99751.59
2023-04-28T04:29:16.195Z,99750.49
2023-04-28T04:29:49.334Z,99750.12
2023-04-28T04:30:22.480Z,99748.20
2023-04-28T04:30:55.714Z,99746.94
2023-04-28T04:31:29.078Z,99745.83
2023-04-28T04:32:02.377Z,99745.86
2023-04-28T04:32:35.741Z,99747.02
2023-04-28T04:33:09.204Z,99748.84
2023-04-28T04:33:43.193Z,99749.43
2023-04-28T04:34:16.733Z,99748.18
2023-04-28T04:34:50.105Z,99748.98
2023-04-28T04:35:23.391Z,99750.14
2023-04-28T04:35:56.965Z,99750.54
2023-04-28T04:36:30.757Z,99750.48
2023-04-28T04:37:04.165Z,99754.06
2023-04-28T04:37:37.387Z,99752.44
2023-04-28T04:38:10.902Z,99750.78
2023-04-28T04:38:44.276Z,99754.63
2023-04-28T04:39:17.541Z,99752.91
2023-04-28T04:39:50.712Z,99751.63
2023-04-28T04:40:24.074Z,99749.89
2023-04-28T04:40:57.588Z,99753.67
2023-04-28T04:41:30.680Z,99757.00
2023-04-28T04:42:16.750Z,99752.52
2023-04-28T04:42:56.886Z,99753.41
2023-04-28T04:43:30.272Z,99754.72
2023-04-28T04:44:04.734Z,99755.25
2023-04-28T04:44:37.922Z,99753.57
2023-04-28T04:45:11.210Z,99750.63
2023-04-28T04:45:44.866Z,99752.20
2023-04-28T04:46:18.187Z,99751.88
2023-04-28T04:46:52.468Z,99755.58
2023-04-28T04:47:25.814Z,99755.42
2023-04-28T04:47:59.160Z,99756.70
2023-04-28T04:48:32.434Z,99753.01
2023-04-28T04:49:05.500Z,99754.05
2023-04-28T04:49:39.282Z,99753.27
2023-04-28T04:50:12.671Z,99753.65
2023-04-28T04:50:45.823Z,99752.47
2023-04-28T04:51:19.552Z,99753.09
2023-04-28T04:51:53.078Z,99750.83
2023-04-28T04:52:26.453Z,99750.16
2023-04-28T04:52:59.759Z,99749.21
2023-04-28T04:53:32.748Z,99750.38
2023-04-28T04:54:05.961Z,99747.55
2023-04-28T04:54:39.184Z,99751.02
2023-04-28T04:55:12.557Z,99748.34
2023-04-28T04:55:45.983Z,99744.75
2023-04-28T04:56:19.320Z,99747.43
2023-04-28T04:56:52.752Z,99749.98
2023-04-28T04:57:26.108Z,99750.47
2023-04-28T04:57:59.553Z,99750.91
2023-04-28T04:58:33.087Z,99750.35
2023-04-28T04:59:06.738Z,99752.33
2023-04-28T04:59:39.897Z,99751.61
2023-04-28T05:00:13.549Z,99753.83
2023-04-28T05:00:46.736Z,99752.69
2023-04-28T05:01:20.228Z,99755.02
2023-04-28T05:01:53.582Z,99755.14
2023-04-28T05:02:26.875Z,99756.91
2023-04-28T05:03:00.453Z,99754.73
2023-04-28T05:03:33.951Z,99753.67
2023-04-28T05:04:07.581Z,99755.64
2023-04-28T05:04:41.462Z,99758.76
2023-04-28T05:05:21.093Z,99757.77
2023-04-28T05:05:55.851Z,99757.92
2023-04-28T05:06:29.444Z,99758.39
2023-04-28T05:07:03.535Z,99759.42
2023-04-28T05:07:37.121Z,99757.64
2023-04-28T05:08:10.436Z,99757.77
2023-04-28T05:08:43.656Z,99758.83
2023-04-28T05:09:17.364Z,99758.60
2023-04-28T05:09:50.699Z,99758.52
2023-04-28T05:10:24.907Z,99757.96
2023-04-28T05:10:58.155Z,99760.15
2023-04-28T05:11:31.195Z,99759.70
2023-04-28T05:12:04.560Z,99757.89
2023-04-28T05:12:40.591Z,99761.58
2023-04-28T05:13:13.783Z,99758.08
2023-04-28T05:13:46.947Z,99757.56
2023-04-28T05:14:20.157Z,99757.02
2023-04-28T05:14:53.357Z,99758.58
2023-04-28T05:15:26.591Z,99758.48
2023-04-28T05:16:00.158Z,99755.30
2023-04-28T05:16:33.579Z,99758.02
2023-04-28T05:17:06.896Z,99755.70
2023-04-28T05:17:40.010Z,99756.68
2023-04-28T05:18:14.396Z,99755.36
2023-04-28T05:18:47.824Z,99757.77
2023-04-28T05:19:21.267Z,99756.42
2023-04-28T05:19:54.479Z,99757.77
2023-04-28T05:20:27.707Z,99763.41
2023-04-28T05:21:01.911Z,99759.42
2023-04-28T05:21:35.232Z,99758.55
2023-04-28T05:22:08.547Z,99758.66
2023-04-28T05:22:42.063Z,99761.05
2023-04-28T05:23:15.360Z,99755.23
2023-04-28T05:23:48.619Z,99754.98
2023-04-28T05:24:23.919Z,99756.35
2023-04-28T05:24:57.323Z,99757.41
2023-04-28T05:25:30.819Z,99754.95
2023-04-28T05:26:04.582Z,99752.59
2023-04-28T05:26:37.769Z,99756.85
2023-04-28T05:27:11.105Z,99753.80
2023-04-28T05:27:44.421Z,99756.77
2023-04-28T05:28:18.001Z,99757.34
2023-04-28T05:28:52.694Z,99759.91
2023-04-28T05:29:26.180Z,99757.98
2023-04-28T05:30:00.242Z,99758.00
2023-04-28T05:30:33.807Z,99756.80
2023-04-28T05:31:06.875Z,99761.89
2023-04-28T05:31:40.191Z,99759.02
2023-04-28T05:32:13.533Z,99761.02
2023-04-28T05:32:47.019Z,99760.98
2023-04-28T05:33:20.325Z,99764.08
2023-04-28T05:33:53.595Z,99760.92
2023-04-28T05:34:26.924Z,99760.27
2023-04-28T05:35:00.163Z,99761.86
2023-04-28T05:35:33.487Z,99761.58
2023-04-28T05:36:06.776Z,99762.47
2023-04-28T05:36:40.050Z,99762.34
2023-04-28T05:37:13.163Z,99764.11
2023-04-28T05:37:46.341Z,99765.79
2023-04-28T05:38:20.575Z,99766.02
2023-04-28T05:38:55.278Z,99766.20
2023-04-28T05:39:28.495Z,99770.71
2023-04-28T05:40:01.625Z,99770.96
2023-04-28T05:40:34.799Z,99769.19
2023-04-28T05:41:08.006Z,99772.06
2023-04-28T05:41:41.205Z,99773.74
2023-04-28T05:42:14.166Z,99769.36
2023-04-28T05:42:47.354Z,99772.23
2023-04-28T05:43:20.544Z,99770.12
2023-04-28T05:43:53.762Z,99769.35
2023-04-28T05:44:27.112Z,99772.92
2023-04-28T05:45:00.359Z,99772.67
2023-04-28T05:45:33.696Z,99770.70
2023-04-28T05:46:14.889Z,99774.79
2023-04-28T05:46:55.735Z,99773.01
2023-04-28T05:47:29.701Z,99771.67
2023-04-28T05:48:03.145Z,99771.05
2023-04-28T05:48:36.718Z,99770.48
2023-04-28T05:49:10.430Z,99772.34
2023-04-28T05:49:43.641Z,99768.28
2023-04-28T05:50:17.073Z,99770.09
2023-04-28T05:50:50.293Z,99767.40
2023-04-28T05:51:23.423Z,99768.98
2023-04-28T05:51:56.497Z,99769.90
2023-04-28T05:52:29.606Z,99768.92
2023-04-28T05:53:03.163Z,99770.84
2023-04-28T05:53:36.307Z,99770.48
2023-04-28T05:54:09.504Z,99769.49
2023-04-28T05:54:42.705Z,99769.87
2023-04-28T05:55:15.954Z,99768.83
2023-04-28T05:55:49.138Z,99771.16
2023-04-28T05:56:22.326Z,99767.09
2023-04-28T05:56:55.951Z,99765.71
2023-04-28T05:57:30.539Z,99764.10
2023-04-28T05:58:07.046Z,99768.48
2023-04-28T05:58:40.637Z,99768.27
2023-04-28T05:59:13.714Z,99768.84
2023-04-28T05:59:47.250Z,99771.21
2023-04-28T06:00:20.622Z,99772.60
2023-04-28T06:00:55.085Z,99773.85
2023-04-28T06:01:28.344Z,99777.10
2023-04-28T06:02:01.656Z,99779.81
2023-04-28T06:02:35.113Z,99780.02
2023-04-28T06:03:11.479Z,99780.03
2023-04-28T06:03:45.593Z,99781.65
2023-04-28T06:04:19.324Z,99776.31
2023-04-28T06:04:53.393Z,99777.70
2023-04-28T06:05:26.848Z,99783.04
2023-04-28T06:06:00.428Z,99778.61
2023-04-28T06:06:34.363Z,99778.80
2023-04-28T06:07:08.415Z,99780.30
2023-04-28T06:07:41.865Z,99778.38
2023-04-28T06:08:15.112Z,99780.96
2023-04-28T06:08:48.378Z,99778.79
2023-04-28T06:09:21.711Z,99777.92
2023-04-28T06:09:54.686Z,99778.04
2023-04-28T06:10:28.123Z,99776.16
2023-04-28T06:11:01.517Z,99776.79
2023-04-28T06:11:34.944Z,99775.45
2023-04-28T06:12:08.209Z,99778.64
2023-04-28T06:12:41.413Z,99774.75
2023-04-28T06:13:14.863Z,99775.23
2023-04-28T06:13:49.360Z,99776.94
2023-04-28T06:14:23.317Z,99778.29
2023-04-28T06:14:56.811Z,99779.17
2023-04-28T06:15:30.433Z,99777.66
2023-04-28T06:16:03.889Z,99779.25
2023-04-28T06:16:37.098Z,99780.67
2023-04-28T06:17:10.406Z,99777.73
2023-04-28T06:17:43.489Z,99778.09
2023-04-28T06:18:16.691Z,99779.19
2023-04-28T06:18:49.965Z,99779.31
2023-04-28T06:19:23.140Z,99779.89
2023-04-28T06:19:57.108Z,99777.90
2023-04-28T06:20:30.411Z,99782.39
2023-04-28T06:21:04.091Z,99782.12
2023-04-28T06:21:37.410Z,99780.27
2023-04-28T06:22:10.696Z,99781.52
2023-04-28T06:22:44.198Z,99781.10
2023-04-28T06:23:17.324Z,99780.52
2023-04-28T06:23:50.733Z,99783.55
2023-04-28T06:24:24.015Z,99781.62
2023-04-28T06:24:57.218Z,99781.56
2023-04-28T06:25:30.490Z,99778.33
2023-04-28T06:26:03.579Z,99784.42
2023-04-28T06:26:36.844Z,99787.23
2023-04-28T06:27:10.001Z,99785.16
2023-04-28T06:27:43.486Z,99788.49
2023-04-28T06:28:16.739Z,99786.38
2023-04-28T06:28:50.012Z,99787.58
2023-04-28T06:29:24.469Z,99786.08
2023-04-28T06:29:57.714Z,99789.02
2023-04-28T06:30:31.855Z,99789.85
2023-04-28T06:31:05.207Z,99790.23
2023-04-28T06:31:38.477Z,99789.36
2023-04-28T06:32:11.815Z,99789.30
2023-04-28T06:32:45.111Z,99790.91
2023-04-28T06:33:18.278Z,99788.59
2023-04-28T06:33:51.897Z,99790.95
2023-04-28T06:34:27.741Z,99793.04